createdAt,value
2018-02-21T00:01:34.622Z,17.63
2018-02-21T00:04:02.195Z,12.00
2018-02-21T00:06:29.762Z,11.50
2018-02-21T00:08:57.376Z,17.30
2018-02-21T00:11:24.951Z,14.23
2018-02-21T00:13:52.520Z,12.23
2018-02-21T00:16:20.081Z,15.17
2018-02-21T00:18:47.647Z,11.23
2018-02-21T00:21:15.218Z,14.77
2018-02-21T00:23:42.779Z,12.40
2018-02-21T00:26:10.398Z,12.20
2018-02-21T00:28:38.018Z,13.67
2018-02-21T00:31:05.656Z,14.27
2018-02-21T00:33:33.295Z,15.00
2018-02-21T00:36:00.866Z,12.90
2018-02-21T00:38:28.447Z,19.60
2018-02-21T00:40:55.994Z,17.27
2018-02-21T00:43:23.610Z,18.80
2018-02-21T00:45:51.167Z,18.33
2018-02-21T00:48:18.730Z,16.30
2018-02-21T00:50:46.364Z,19.93
2018-02-21T00:53:13.951Z,19.50
2018-02-21T00:55:41.545Z,22.73
2018-02-21T00:58:09.118Z,21.43
2018-02-21T01:00:36.746Z,14.70
2018-02-21T01:03:04.319Z,23.67
2018-02-21T01:05:31.882Z,16.90
2018-02-21T01:07:59.515Z,23.17
2018-02-21T01:10:27.078Z,16.90
2018-02-21T01:12:54.711Z,22.93
2018-02-21T01:15:22.278Z,16.80
2018-02-21T01:17:49.913Z,14.57
2018-02-21T01:20:17.482Z,17.77
2018-02-21T01:22:45.135Z,20.87
2018-02-21T01:25:12.740Z,17.43
2018-02-21T01:27:40.299Z,28.70
2018-02-21T01:30:07.925Z,17.50
2018-02-21T01:32:35.562Z,16.50
2018-02-21T01:35:03.128Z,13.23
2018-02-21T01:37:30.690Z,20.63
2018-02-21T01:39:58.314Z,15.07
2018-02-21T01:42:25.948Z,17.53
2018-02-21T01:44:53.508Z,17.33
2018-02-21T01:47:21.135Z,17.83
2018-02-21T01:49:48.704Z,27.13
2018-02-21T01:52:16.284Z,18.40
2018-02-21T01:54:43.846Z,21.07
2018-02-21T01:57:11.471Z,16.57
2018-02-21T01:59:39.026Z,25.13
2018-02-21T02:02:06.654Z,18.53
2018-02-21T02:04:34.279Z,19.10
2018-02-21T02:07:01.852Z,15.77
2018-02-21T02:09:29.494Z,16.27
2018-02-21T02:11:57.121Z,17.30
2018-02-21T02:14:24.687Z,19.70
2018-02-21T02:16:52.231Z,13.57
2018-02-21T02:19:19.829Z,12.00
2018-02-21T02:21:47.450Z,18.23
2018-02-21T02:24:15.016Z,17.50
2018-02-21T02:26:42.588Z,19.47
2018-02-21T02:29:10.208Z,17.60
2018-02-21T02:31:37.779Z,14.83
2018-02-21T02:34:05.402Z,15.30
2018-02-21T02:36:33.014Z,13.27
2018-02-21T02:39:12.275Z,20.27
2018-02-21T02:41:39.846Z,20.20
2018-02-21T02:44:07.476Z,27.33
2018-02-21T02:46:35.162Z,16.20
2018-02-21T02:49:02.732Z,15.43
2018-02-21T02:51:30.356Z,14.70
2018-02-21T02:53:57.927Z,13.90
2018-02-21T02:56:25.549Z,16.67
2018-02-21T02:58:53.235Z,12.73
2018-02-21T03:01:20.803Z,13.23
2018-02-21T03:03:48.369Z,14.37
2018-02-21T03:06:15.991Z,16.33
2018-02-21T03:08:43.624Z,13.37
2018-02-21T03:11:11.244Z,16.80
2018-02-21T03:13:38.864Z,12.80
2018-02-21T03:16:06.431Z,12.50
2018-02-21T03:18:34.063Z,12.40
2018-02-21T03:21:01.629Z,9.37
2018-02-21T03:23:29.251Z,17.67
2018-02-21T03:25:56.806Z,12.10
2018-02-21T03:28:24.362Z,17.20
2018-02-21T03:30:51.950Z,11.93
2018-02-21T03:33:19.571Z,13.90
2018-02-21T03:35:47.186Z,11.80
2018-02-21T03:38:14.790Z,10.10
2018-02-21T03:40:42.355Z,12.93
2018-02-21T03:43:09.937Z,10.47
2018-02-21T03:45:37.553Z,11.80
2018-02-21T03:48:05.226Z,16.10
2018-02-21T03:50:32.786Z,10.57
2018-02-21T03:53:00.364Z,12.77
2018-02-21T03:55:27.940Z,12.80
2018-02-21T03:57:55.558Z,11.13
2018-02-21T04:00:23.170Z,13.73
2018-02-21T04:02:50.708Z,9.30
2018-02-21T04:05:18.285Z,8.57
2018-02-21T04:07:45.851Z,11.27
2018-02-21T04:10:13.411Z,9.93
2018-02-21T04:12:41.091Z,10.00
2018-02-21T04:15:08.671Z,8.20
2018-02-21T04:17:36.330Z,9.37
2018-02-21T04:20:04.019Z,9.90
2018-02-21T04:22:31.664Z,6.80
2018-02-21T04:24:59.347Z,9.40
2018-02-21T04:27:26.993Z,11.57
2018-02-21T04:29:54.746Z,8.90
2018-02-21T04:32:22.318Z,6.10
2018-02-21T04:34:49.878Z,6.50
2018-02-21T04:37:17.500Z,11.33
2018-02-21T04:39:45.111Z,10.30
2018-02-21T04:42:12.732Z,9.03
2018-02-21T04:44:40.314Z,7.00
2018-02-21T04:47:07.928Z,7.30
2018-02-21T04:49:35.599Z,8.27
2018-02-21T04:52:03.139Z,6.67
2018-02-21T04:57:37.587Z,7.43
2018-02-21T05:00:05.235Z,5.53
2018-02-21T05:02:32.843Z,8.10
2018-02-21T05:05:00.433Z,7.70
2018-02-21T05:07:27.999Z,7.17
2018-02-21T05:09:55.558Z,7.20
2018-02-21T05:12:23.188Z,7.30
2018-02-21T05:14:50.751Z,7.90
2018-02-21T05:17:18.313Z,11.50
2018-02-21T05:19:45.888Z,6.63
2018-02-21T05:22:13.500Z,6.87
2018-02-21T05:24:41.130Z,7.03
2018-02-21T05:27:08.748Z,7.20
2018-02-21T05:29:36.421Z,7.83
2018-02-21T05:32:04.008Z,8.20
2018-02-21T05:34:31.647Z,9.73
2018-02-21T05:36:59.292Z,10.30
2018-02-21T05:39:26.898Z,24.40
2018-02-21T05:41:54.562Z,18.87
2018-02-21T05:44:22.161Z,14.43
2018-02-21T05:46:49.739Z,16.27
2018-02-21T05:49:17.369Z,13.53
2018-02-21T05:51:44.935Z,18.03
2018-02-21T05:54:12.561Z,20.93
2018-02-21T05:56:40.217Z,18.27
2018-02-21T05:59:07.797Z,23.60
2018-02-21T06:01:35.375Z,20.90
2018-02-21T06:04:03.056Z,23.30
2018-02-21T06:06:30.637Z,18.93
2018-02-21T06:08:58.219Z,27.60
2018-02-21T06:11:25.854Z,29.33
2018-02-21T06:13:53.452Z,44.63
2018-02-21T06:16:21.023Z,31.40
2018-02-21T06:18:48.684Z,25.23
2018-02-21T06:21:16.255Z,23.83
2018-02-21T06:23:43.896Z,27.70
2018-02-21T06:26:11.548Z,28.07
2018-02-21T06:28:39.135Z,23.03
2018-02-21T06:31:06.718Z,29.77
2018-02-21T06:33:34.318Z,27.03
2018-02-21T06:36:01.919Z,31.30
2018-02-21T06:38:29.578Z,28.27
2018-02-21T06:40:57.256Z,26.90
2018-02-21T06:43:24.907Z,33.27
2018-02-21T06:45:52.864Z,24.80
2018-02-21T06:48:20.456Z,19.50
2018-02-21T06:50:48.027Z,28.50
2018-02-21T06:53:15.674Z,22.60
2018-02-21T06:55:43.270Z,22.70
2018-02-21T06:58:10.855Z,27.87
2018-02-21T07:00:38.512Z,30.77
2018-02-21T07:03:06.108Z,35.03
2018-02-21T07:05:33.682Z,35.87
2018-02-21T07:08:01.342Z,36.60
2018-02-21T07:10:28.988Z,26.70
2018-02-21T07:12:56.623Z,17.80
2018-02-21T07:15:24.297Z,26.70
2018-02-21T07:17:51.888Z,19.83
2018-02-21T07:20:19.579Z,27.80
2018-02-21T07:22:47.179Z,32.70
2018-02-21T07:25:14.728Z,24.97
2018-02-21T07:27:42.362Z,40.70
2018-02-21T07:30:10.013Z,22.37
2018-02-21T07:32:37.709Z,27.23
2018-02-21T07:35:05.284Z,34.30
2018-02-21T07:37:32.864Z,34.67
2018-02-21T07:40:00.454Z,24.30
2018-02-21T07:42:28.075Z,26.10
2018-02-21T07:44:55.770Z,19.27
2018-02-21T07:47:23.410Z,28.40
2018-02-21T07:49:50.998Z,27.93
2018-02-21T07:52:18.591Z,20.83
2018-02-21T07:54:46.231Z,21.70
2018-02-21T07:57:13.944Z,26.80
2018-02-21T07:59:41.587Z,24.07
2018-02-21T08:02:09.228Z,21.80
2018-02-21T08:04:36.903Z,25.03
2018-02-21T08:07:04.564Z,27.43
2018-02-21T08:09:32.221Z,25.10
2018-02-21T08:11:59.965Z,22.03
2018-02-21T08:14:27.609Z,18.83
2018-02-21T08:16:55.172Z,42.23
2018-02-21T08:19:22.814Z,17.10
2018-02-21T08:21:50.468Z,20.50
2018-02-21T08:24:18.122Z,19.57
2018-02-21T08:26:45.833Z,20.80
2018-02-21T08:29:13.489Z,21.57
2018-02-21T08:31:41.152Z,20.43
2018-02-21T08:34:08.857Z,26.80
2018-02-21T08:36:36.553Z,27.07
2018-02-21T08:39:04.326Z,27.80
2018-02-21T08:41:32.025Z,30.37
2018-02-21T08:43:59.612Z,25.90
2018-02-21T08:46:27.273Z,20.40
2018-02-21T08:48:54.906Z,23.83
2018-02-21T08:51:22.493Z,23.70
2018-02-21T08:53:50.531Z,26.77
2018-02-21T08:56:18.191Z,18.33
2018-02-21T08:58:46.079Z,20.60
2018-02-21T09:01:13.652Z,21.53
2018-02-21T09:03:41.351Z,25.83
2018-02-21T09:06:08.917Z,25.17
2018-02-21T09:08:36.499Z,25.23
2018-02-21T09:11:04.410Z,20.13
2018-02-21T09:13:31.986Z,18.87
2018-02-21T09:15:59.564Z,17.90
2018-02-21T09:18:27.201Z,18.13
2018-02-21T09:20:54.774Z,21.30
2018-02-21T09:23:22.355Z,26.50
2018-02-21T09:25:49.994Z,28.30
2018-02-21T09:28:17.644Z,25.73
2018-02-21T09:30:45.217Z,22.63
2018-02-21T09:33:12.856Z,17.53
2018-02-21T09:35:40.426Z,17.37
2018-02-21T09:38:08.026Z,21.60
2018-02-21T09:40:35.653Z,20.57
2018-02-21T09:43:03.244Z,31.07
2018-02-21T09:45:30.875Z,31.20
2018-02-21T09:47:58.560Z,31.40
2018-02-21T09:50:26.116Z,28.10
2018-02-21T09:52:53.682Z,28.63
2018-02-21T09:55:21.361Z,21.60
2018-02-21T09:57:48.940Z,25.40
2018-02-21T10:00:16.509Z,21.20
2018-02-21T10:02:44.130Z,23.13
2018-02-21T10:05:11.759Z,26.13
2018-02-21T10:07:39.337Z,33.03
2018-02-21T10:10:06.976Z,26.93
2018-02-21T10:12:34.549Z,36.27
2018-02-21T10:15:02.129Z,20.83
2018-02-21T10:17:29.765Z,21.80
2018-02-21T10:19:57.336Z,23.23
2018-02-21T10:22:24.914Z,28.03
2018-02-21T10:24:52.554Z,31.87
2018-02-21T10:27:20.136Z,25.10
2018-02-21T10:29:47.724Z,40.10
2018-02-21T10:32:15.427Z,25.00
2018-02-21T10:34:43.674Z,27.43
2018-02-21T10:37:11.252Z,18.97
2018-02-21T10:39:38.895Z,18.27
2018-02-21T10:42:07.175Z,18.07
2018-02-21T10:44:34.745Z,20.80
2018-02-21T10:47:02.378Z,23.40
2018-02-21T10:49:30.055Z,25.17
2018-02-21T10:51:58.096Z,22.23
2018-02-21T10:54:25.784Z,18.43
2018-02-21T10:56:53.400Z,20.13
2018-02-21T10:59:20.995Z,24.07
2018-02-21T11:01:48.943Z,21.77
2018-02-21T11:04:16.575Z,25.37
2018-02-21T11:06:44.290Z,28.00
2018-02-21T11:09:12.035Z,25.30
2018-02-21T11:11:39.782Z,21.13
2018-02-21T11:14:07.521Z,24.60
2018-02-21T11:16:35.463Z,23.93
2018-02-21T11:19:03.332Z,19.63
2018-02-21T11:21:30.913Z,22.20
2018-02-21T11:23:58.571Z,22.80
2018-02-21T11:26:26.142Z,18.70
2018-02-21T11:28:53.827Z,24.90
2018-02-21T11:31:21.498Z,21.10
2018-02-21T11:33:49.210Z,22.97
2018-02-21T11:36:16.797Z,21.90
2018-02-21T11:38:44.468Z,20.73
2018-02-21T11:41:12.043Z,24.90
2018-02-21T11:43:39.761Z,16.27
2018-02-21T11:46:07.525Z,16.10
2018-02-21T11:48:35.352Z,15.73
2018-02-21T11:51:03.067Z,15.37
2018-02-21T11:53:30.730Z,17.70
2018-02-21T11:55:58.363Z,17.30
2018-02-21T11:58:26.002Z,14.67
2018-02-21T12:00:53.633Z,15.40
2018-02-21T12:03:21.289Z,16.07
2018-02-21T12:05:48.855Z,16.17
2018-02-21T12:08:16.487Z,16.20
2018-02-21T12:10:44.145Z,13.77
2018-02-21T12:13:11.771Z,15.40
2018-02-21T12:15:39.393Z,13.63
2018-02-21T12:18:06.962Z,20.40
2018-02-21T12:20:34.556Z,16.43
2018-02-21T12:23:02.239Z,13.13
2018-02-21T12:25:29.857Z,14.33
2018-02-21T12:27:57.482Z,13.73
2018-02-21T12:30:25.107Z,15.63
2018-02-21T12:32:58.466Z,12.60
2018-02-21T12:35:26.094Z,12.80
2018-02-21T12:37:53.657Z,12.40
2018-02-21T12:40:27.055Z,13.03
2018-02-21T12:42:54.628Z,22.67
2018-02-21T12:45:22.204Z,11.03
2018-02-21T12:47:49.826Z,10.57
2018-02-21T12:50:17.546Z,9.57
2018-02-21T12:52:45.096Z,10.93
2018-02-21T12:55:12.783Z,17.37
2018-02-21T12:57:40.351Z,20.73
2018-02-21T13:00:07.930Z,8.60
2018-02-21T13:02:35.548Z,12.00
2018-02-21T13:05:03.167Z,25.60
2018-02-21T13:07:30.734Z,12.90
2018-02-21T13:09:58.459Z,9.87
2018-02-21T13:12:26.031Z,11.07
2018-02-21T13:14:53.752Z,14.23
2018-02-21T13:17:21.374Z,7.27
2018-02-21T13:19:48.932Z,12.20
2018-02-21T13:22:16.595Z,11.20
2018-02-21T13:24:44.237Z,10.60
2018-02-21T13:27:11.802Z,11.00
2018-02-21T13:29:39.362Z,12.47
2018-02-21T13:32:06.997Z,12.90
2018-02-21T13:34:35.130Z,9.80
2018-02-21T13:37:02.716Z,11.43
2018-02-21T13:39:30.415Z,14.53
2018-02-21T13:41:58.097Z,12.53
2018-02-21T13:44:25.664Z,10.70
2018-02-21T13:46:53.275Z,12.73
2018-02-21T13:49:20.838Z,13.57
2018-02-21T13:51:48.464Z,11.83
2018-02-21T13:54:16.160Z,15.13
2018-02-21T13:56:43.758Z,13.53
2018-02-21T13:59:11.327Z,14.00
2018-02-21T14:01:39.021Z,15.80
2018-02-21T14:04:06.663Z,15.10
2018-02-21T14:06:34.275Z,15.43
2018-02-21T14:09:02.005Z,14.67
2018-02-21T14:11:29.635Z,16.00
2018-02-21T14:13:57.200Z,15.93
2018-02-21T14:16:24.894Z,18.20
2018-02-21T14:18:52.469Z,18.27
2018-02-21T14:21:20.049Z,17.00
2018-02-21T14:23:47.793Z,22.57
2018-02-21T14:26:15.374Z,42.23
2018-02-21T14:28:42.943Z,18.27
2018-02-21T14:31:10.634Z,19.50
2018-02-21T14:33:38.211Z,19.47
2018-02-21T14:36:05.821Z,17.20
2018-02-21T14:38:33.495Z,18.43
2018-02-21T14:41:01.069Z,15.50
2018-02-21T14:43:28.702Z,21.40
2018-02-21T14:45:56.384Z,25.33
2018-02-21T14:48:23.985Z,17.37
2018-02-21T14:50:51.634Z,25.80
2018-02-21T14:53:19.275Z,18.97
2018-02-21T14:55:46.964Z,20.10
2018-02-21T14:58:14.600Z,19.13
2018-02-21T15:00:42.284Z,15.30
2018-02-21T15:03:09.850Z,16.30
2018-02-21T15:05:37.963Z,15.50
2018-02-21T15:08:05.655Z,15.70
2018-02-21T15:10:33.235Z,13.97
2018-02-21T15:13:00.818Z,17.50
2018-02-21T15:15:28.474Z,16.23
2018-02-21T15:17:56.103Z,18.37
2018-02-21T15:20:23.737Z,22.33
2018-02-21T15:22:51.384Z,20.77
2018-02-21T15:25:18.964Z,28.30
2018-02-21T15:27:46.540Z,17.23
2018-02-21T15:30:14.291Z,20.00
2018-02-21T15:32:41.868Z,21.80
2018-02-21T15:35:09.448Z,22.10
2018-02-21T15:37:37.135Z,24.47
2018-02-21T15:40:04.795Z,22.87
2018-02-21T15:42:32.395Z,28.07
2018-02-21T15:45:00.094Z,24.10
2018-02-21T15:47:27.703Z,30.70
2018-02-21T15:49:55.448Z,24.03
2018-02-21T15:52:23.251Z,23.03
2018-02-21T15:54:50.885Z,21.67
2018-02-21T15:57:18.626Z,18.53
2018-02-21T15:59:47.410Z,20.87
2018-02-21T16:02:15.107Z,20.37
2018-02-21T16:04:42.833Z,23.80
2018-02-21T16:07:14.694Z,20.80
2018-02-21T16:09:42.280Z,21.33
2018-02-21T16:12:09.927Z,30.37
2018-02-21T16:14:37.550Z,32.47
2018-02-21T16:17:05.175Z,32.00
2018-02-21T16:19:32.807Z,31.37
2018-02-21T16:22:00.478Z,26.93
2018-02-21T16:24:28.074Z,29.87
2018-02-21T16:26:55.708Z,29.70
2018-02-21T16:29:23.406Z,29.57
2018-02-21T16:31:50.971Z,27.83
2018-02-21T16:34:18.557Z,24.90
2018-02-21T16:36:46.215Z,27.10
2018-02-21T16:39:13.802Z,29.13
2018-02-21T16:41:41.452Z,32.47
2018-02-21T16:44:09.190Z,27.70
2018-02-21T16:46:36.840Z,31.70
2018-02-21T16:49:04.419Z,30.80
2018-02-21T16:51:32.175Z,22.80
2018-02-21T16:54:05.568Z,25.23
2018-02-21T16:56:33.208Z,25.47
2018-02-21T16:59:00.840Z,27.00
2018-02-21T17:01:28.414Z,23.73
2018-02-21T17:03:56.106Z,26.50
2018-02-21T17:06:23.671Z,22.23
2018-02-21T17:08:51.240Z,20.77
2018-02-21T17:11:18.868Z,19.43
2018-02-21T17:13:46.440Z,26.60
2018-02-21T17:16:14.068Z,26.00
2018-02-21T17:18:41.703Z,25.73
2018-02-21T17:21:09.270Z,21.20
2018-02-21T17:23:36.849Z,21.07
2018-02-21T17:26:04.476Z,28.27
2018-02-21T17:28:32.110Z,37.23
2018-02-21T17:30:59.682Z,27.40
2018-02-21T17:33:27.298Z,28.90
2018-02-21T17:35:54.939Z,31.73
2018-02-21T17:38:22.571Z,26.33
2018-02-21T17:40:55.692Z,26.80
2018-02-21T17:43:23.503Z,29.23
2018-02-21T17:45:51.195Z,18.63
2018-02-21T17:48:18.899Z,24.50
2018-02-21T17:50:46.474Z,22.23
2018-02-21T17:53:14.062Z,23.80
2018-02-21T17:55:41.766Z,22.60
2018-02-21T17:58:09.375Z,19.63
2018-02-21T18:00:36.976Z,17.93
2018-02-21T18:03:04.638Z,20.53
2018-02-21T18:05:32.203Z,20.97
2018-02-21T18:07:59.786Z,22.43
2018-02-21T18:10:27.423Z,24.63
2018-02-21T18:12:55.051Z,26.27
2018-02-21T18:15:22.623Z,21.03
2018-02-21T18:17:50.307Z,26.50
2018-02-21T18:20:17.870Z,25.47
2018-02-21T18:22:45.498Z,21.80
2018-02-21T18:25:13.124Z,24.50
2018-02-21T18:27:40.754Z,23.77
2018-02-21T18:30:08.383Z,21.40
2018-02-21T18:32:36.070Z,23.53
2018-02-21T18:35:03.649Z,22.87
2018-02-21T18:37:31.223Z,21.87
2018-02-21T18:39:58.841Z,25.40
2018-02-21T18:42:26.410Z,28.47
2018-02-21T18:44:54.011Z,32.80
2018-02-21T18:47:21.699Z,17.70
2018-02-21T18:49:49.280Z,23.30
2018-02-21T18:52:16.863Z,24.47
2018-02-21T18:54:44.486Z,19.50
2018-02-21T18:57:12.120Z,22.83
2018-02-21T18:59:39.732Z,21.97
2018-02-21T19:02:07.420Z,20.60
2018-02-21T19:04:34.991Z,19.00
2018-02-21T19:07:02.601Z,19.83
2018-02-21T19:09:30.248Z,20.13
2018-02-21T19:11:57.879Z,19.30
2018-02-21T19:14:25.462Z,21.17
2018-02-21T19:16:53.083Z,20.53
2018-02-21T19:19:20.641Z,28.17
2018-02-21T19:21:48.274Z,21.37
2018-02-21T19:24:16.000Z,20.70
2018-02-21T19:26:43.576Z,22.27
2018-02-21T19:29:11.206Z,23.83
2018-02-21T19:31:38.822Z,25.53
2018-02-21T19:37:04.535Z,36.20
2018-02-21T19:39:32.129Z,27.87
2018-02-21T19:41:59.767Z,23.80
2018-02-21T19:44:27.401Z,26.43
2018-02-21T19:46:54.966Z,21.03
2018-02-21T19:49:22.534Z,29.73
2018-02-21T19:51:50.170Z,21.77
2018-02-21T19:54:17.803Z,21.87
2018-02-21T19:56:45.382Z,40.50
2018-02-21T19:59:13.010Z,28.77
2018-02-21T20:01:40.663Z,26.40
2018-02-21T20:04:08.227Z,26.60
2018-02-21T20:06:35.915Z,21.67
2018-02-21T20:09:03.608Z,22.33
2018-02-21T20:11:31.183Z,26.33
2018-02-21T20:13:58.863Z,24.30
2018-02-21T20:16:26.441Z,25.93
2018-02-21T20:18:54.067Z,26.10
2018-02-21T20:21:21.715Z,24.33
2018-02-21T20:23:49.342Z,26.40
2018-02-21T20:26:16.925Z,20.87
2018-02-21T20:28:44.562Z,22.27
2018-02-21T20:31:12.125Z,18.57
2018-02-21T20:33:39.686Z,22.77
2018-02-21T20:36:07.297Z,17.33
2018-02-21T20:38:34.871Z,20.37
2018-02-21T20:41:02.495Z,17.30
2018-02-21T20:43:30.128Z,20.37
2018-02-21T20:45:57.755Z,26.03
2018-02-21T20:48:25.406Z,19.63
2018-02-21T20:50:53.035Z,23.20
2018-02-21T20:53:20.597Z,24.30
2018-02-21T20:55:48.142Z,22.40
2018-02-21T20:58:15.820Z,21.83
2018-02-21T21:00:43.464Z,20.20
2018-02-21T21:03:11.026Z,24.10
2018-02-21T21:05:38.629Z,19.60
2018-02-21T21:08:06.256Z,28.23
2018-02-21T21:10:33.819Z,28.00
2018-02-21T21:13:01.460Z,25.27
2018-02-21T21:15:29.026Z,24.20
2018-02-21T21:17:56.590Z,21.67
2018-02-21T21:20:24.332Z,25.40
2018-02-21T21:22:51.962Z,24.90
2018-02-21T21:25:19.642Z,23.73
2018-02-21T21:27:47.265Z,25.20
2018-02-21T21:30:14.827Z,21.27
2018-02-21T21:32:42.400Z,24.73
2018-02-21T21:35:10.027Z,24.00
2018-02-21T21:37:37.651Z,24.37
2018-02-21T21:40:05.219Z,23.53
2018-02-21T21:42:32.898Z,21.63
2018-02-21T21:45:00.465Z,23.30
2018-02-21T21:47:28.044Z,24.17
2018-02-21T21:49:55.687Z,19.07
2018-02-21T21:52:23.268Z,19.80
2018-02-21T21:54:50.883Z,17.63
2018-02-21T21:57:18.563Z,17.13
2018-02-21T21:59:46.126Z,20.03
2018-02-21T22:02:13.690Z,21.30
2018-02-21T22:04:41.308Z,19.67
2018-02-21T22:07:08.872Z,14.70
2018-02-21T22:09:36.502Z,20.13
2018-02-21T22:12:04.108Z,22.80
2018-02-21T22:14:31.729Z,22.00
2018-02-21T22:16:59.298Z,37.77
2018-02-21T22:19:26.914Z,19.03
2018-02-21T22:21:54.655Z,20.93
2018-02-21T22:24:22.280Z,20.40
2018-02-21T22:26:49.932Z,20.17
2018-02-21T22:29:17.564Z,23.30
2018-02-21T22:31:45.140Z,24.53
2018-02-21T22:34:12.778Z,28.43
2018-02-21T22:36:40.345Z,23.77
2018-02-21T22:39:07.961Z,25.03
2018-02-21T22:41:35.655Z,23.37
2018-02-21T22:44:03.221Z,22.80
2018-02-21T22:46:30.794Z,25.50
2018-02-21T22:48:58.423Z,24.43
2018-02-21T22:51:26.020Z,28.83
2018-02-21T22:53:53.594Z,24.37
2018-02-21T22:56:21.268Z,25.50
2018-02-21T22:58:48.830Z,24.40
2018-02-21T23:01:16.459Z,28.80
2018-02-21T23:03:44.084Z,23.03
2018-02-21T23:06:11.707Z,27.90
2018-02-21T23:08:39.303Z,24.33
2018-02-21T23:14:05.011Z,28.93
2018-02-21T23:16:32.650Z,28.00
2018-02-21T23:19:00.222Z,26.30
2018-02-21T23:21:27.783Z,29.60
2018-02-21T23:23:55.410Z,28.87
2018-02-21T23:26:22.980Z,27.67
2018-02-21T23:28:50.545Z,27.83
2018-02-21T23:31:18.166Z,28.50
2018-02-21T23:33:45.739Z,37.10
2018-02-21T23:36:13.307Z,30.13
2018-02-21T23:38:40.942Z,34.40
2018-02-21T23:41:08.621Z,31.47
2018-02-21T23:43:36.234Z,26.80
2018-02-21T23:46:03.926Z,26.50
2018-02-21T23:48:31.503Z,32.83
2018-02-21T23:50:59.067Z,32.03
2018-02-21T23:53:26.776Z,23.97
2018-02-21T23:55:54.398Z,25.03
2018-02-21T23:58:21.976Z,32.57
